createdAt,value
2017-08-01T00:00:59.176Z,3.33
2017-08-01T00:03:25.839Z,3.27
2017-08-01T00:05:52.492Z,4.37
2017-08-01T00:08:19.151Z,5.00
2017-08-01T00:10:45.826Z,3.70
2017-08-01T00:13:12.472Z,5.10
2017-08-01T00:15:39.118Z,3.83
2017-08-01T00:18:05.806Z,4.30
2017-08-01T00:20:32.462Z,4.13
2017-08-01T00:22:59.108Z,3.80
2017-08-01T00:25:25.769Z,3.33
2017-08-01T00:27:52.419Z,4.03
2017-08-01T00:30:19.056Z,3.23
2017-08-01T00:32:45.739Z,4.33
2017-08-01T00:35:12.379Z,3.80
2017-08-01T00:37:39.008Z,3.60
2017-08-01T00:40:05.668Z,3.87
2017-08-01T00:42:32.312Z,4.20
2017-08-01T00:44:58.952Z,3.90
2017-08-01T00:47:25.620Z,3.10
2017-08-01T00:49:52.260Z,4.60
2017-08-01T00:52:18.892Z,3.00
2017-08-01T00:54:45.544Z,3.17
2017-08-01T00:57:12.199Z,4.07
2017-08-01T00:59:38.851Z,3.40
2017-08-01T01:02:05.524Z,3.83
2017-08-01T01:04:32.174Z,3.17
2017-08-01T01:06:58.830Z,3.13
2017-08-01T01:09:25.490Z,3.10
2017-08-01T01:11:52.123Z,3.40
2017-08-01T01:14:18.770Z,2.80
2017-08-01T01:16:45.463Z,3.73
2017-08-01T01:19:12.123Z,3.20
2017-08-01T01:21:38.786Z,3.20
2017-08-01T01:24:05.483Z,3.10
2017-08-01T01:26:32.123Z,3.20
2017-08-01T01:28:58.782Z,3.80
2017-08-01T01:31:25.470Z,3.17
2017-08-01T01:33:52.103Z,3.70
2017-08-01T01:36:18.754Z,3.73
2017-08-01T01:38:45.411Z,3.77
2017-08-01T01:41:12.059Z,3.13
2017-08-01T01:43:38.703Z,3.17
2017-08-01T01:46:05.371Z,4.53
2017-08-01T01:48:32.023Z,4.03
2017-08-01T01:50:58.677Z,3.70
2017-08-01T01:53:25.356Z,3.87
2017-08-01T01:55:52.005Z,3.90
2017-08-01T01:58:18.660Z,3.80
2017-08-01T02:00:45.328Z,4.30
2017-08-01T02:03:11.966Z,3.30
2017-08-01T02:05:38.622Z,4.30
2017-08-01T02:08:05.294Z,3.50
2017-08-01T02:10:31.942Z,4.63
2017-08-01T02:12:58.576Z,4.20
2017-08-01T02:15:25.225Z,4.60
2017-08-01T02:17:51.875Z,3.00
2017-08-01T02:20:18.522Z,4.30
2017-08-01T02:22:45.207Z,4.77
2017-08-01T02:25:11.886Z,3.63
2017-08-01T02:27:38.543Z,3.77
2017-08-01T02:30:05.213Z,4.63
2017-08-01T02:32:31.852Z,5.03
2017-08-01T02:34:58.500Z,4.60
2017-08-01T02:37:25.166Z,4.73
2017-08-01T02:39:51.820Z,4.77
2017-08-01T02:42:18.455Z,4.60
2017-08-01T02:44:45.158Z,4.30
2017-08-01T02:47:11.809Z,3.90
2017-08-01T02:49:38.457Z,4.60
2017-08-01T02:52:05.111Z,4.60
2017-08-01T02:54:31.762Z,4.43
2017-08-01T02:56:58.409Z,4.50
2017-08-01T02:59:25.078Z,4.70
2017-08-01T03:01:51.716Z,5.00
2017-08-01T03:04:18.407Z,5.00
2017-08-01T03:06:45.083Z,4.93
2017-08-01T03:09:11.742Z,5.23
2017-08-01T03:11:38.404Z,5.27
2017-08-01T03:14:05.070Z,5.67
2017-08-01T03:16:31.718Z,5.13
2017-08-01T03:18:58.356Z,4.53
2017-08-01T03:21:25.028Z,5.57
2017-08-01T03:23:51.678Z,5.23
2017-08-01T03:26:18.324Z,5.97
2017-08-01T03:28:44.990Z,5.87
2017-08-01T03:31:11.628Z,4.57
2017-08-01T03:33:38.276Z,5.73
2017-08-01T03:36:04.940Z,5.43
2017-08-01T03:38:31.584Z,5.53
2017-08-01T03:40:58.220Z,5.53
2017-08-01T03:43:24.898Z,5.67
2017-08-01T03:45:51.536Z,5.10
2017-08-01T03:48:18.168Z,5.70
2017-08-01T03:50:44.860Z,4.90
2017-08-01T03:53:11.509Z,5.20
2017-08-01T03:55:38.159Z,5.23
2017-08-01T03:58:04.839Z,5.80
2017-08-01T04:00:31.494Z,5.20
2017-08-01T04:02:58.136Z,5.20
2017-08-01T04:05:24.798Z,5.40
2017-08-01T04:07:51.436Z,5.50
2017-08-01T04:10:18.076Z,7.00
2017-08-01T04:12:44.740Z,6.53
2017-08-01T04:15:11.404Z,5.53
2017-08-01T04:17:38.048Z,5.77
2017-08-01T04:20:04.725Z,6.50
2017-08-01T04:22:31.386Z,6.90
2017-08-01T04:24:58.029Z,5.60
2017-08-01T04:27:24.702Z,5.53
2017-08-01T04:29:51.340Z,6.10
2017-08-01T04:32:18.000Z,6.83
2017-08-01T04:34:44.664Z,6.97
2017-08-01T04:37:11.300Z,6.50
2017-08-01T04:39:37.948Z,6.80
2017-08-01T04:42:04.611Z,8.13
2017-08-01T04:44:37.040Z,7.00
2017-08-01T04:47:03.694Z,6.73
2017-08-01T04:49:30.359Z,6.80
2017-08-01T04:51:57.020Z,6.03
2017-08-01T04:54:23.669Z,6.20
2017-08-01T04:56:50.324Z,5.63
2017-08-01T04:59:17.054Z,5.97
2017-08-01T05:01:43.714Z,7.30
2017-08-01T05:04:10.388Z,6.10
2017-08-01T05:06:37.026Z,7.27
2017-08-01T05:09:03.683Z,5.67
2017-08-01T05:11:30.343Z,5.00
2017-08-01T05:13:56.986Z,5.40
2017-08-01T05:16:23.628Z,5.20
2017-08-01T05:18:50.291Z,4.50
2017-08-01T05:21:16.932Z,4.67
2017-08-01T05:23:43.585Z,5.20
2017-08-01T05:26:10.259Z,4.90
2017-08-01T05:28:36.915Z,4.90
2017-08-01T05:31:03.559Z,4.00
2017-08-01T05:33:30.237Z,4.40
2017-08-01T05:35:56.867Z,4.77
2017-08-01T05:38:23.518Z,4.83
2017-08-01T05:40:50.205Z,4.40
2017-08-01T05:43:16.859Z,4.60
2017-08-01T05:45:43.518Z,5.27
2017-08-01T05:48:10.186Z,5.60
2017-08-01T05:50:36.853Z,4.90
2017-08-01T05:53:03.492Z,4.30
2017-08-01T05:55:30.152Z,5.23
2017-08-01T05:57:56.831Z,4.37
2017-08-01T06:00:23.503Z,4.83
2017-08-01T06:02:50.184Z,7.27
2017-08-01T06:05:16.860Z,4.70
2017-08-01T06:07:43.515Z,5.20
2017-08-01T06:10:10.174Z,4.80
2017-08-01T06:12:36.835Z,6.90
2017-08-01T06:15:03.704Z,5.23
2017-08-01T06:17:30.345Z,5.20
2017-08-01T06:19:56.998Z,5.80
2017-08-01T06:22:23.659Z,5.97
2017-08-01T06:24:50.310Z,5.97
2017-08-01T06:27:16.959Z,5.30
2017-08-01T06:29:43.631Z,5.70
2017-08-01T06:32:10.288Z,5.60
2017-08-01T06:34:36.942Z,5.03
2017-08-01T06:37:03.604Z,4.53
2017-08-01T06:39:30.263Z,4.83
2017-08-01T06:41:56.919Z,5.73
2017-08-01T06:44:23.580Z,4.93
2017-08-01T06:46:50.220Z,5.77
2017-08-01T06:49:16.903Z,4.33
2017-08-01T06:51:43.576Z,6.17
2017-08-01T06:54:10.230Z,4.80
2017-08-01T06:56:36.872Z,4.67
2017-08-01T06:59:03.559Z,4.70
2017-08-01T07:01:30.204Z,4.40
2017-08-01T07:03:56.849Z,4.67
2017-08-01T07:06:23.508Z,4.40
2017-08-01T07:08:50.207Z,4.10
2017-08-01T07:11:16.872Z,4.57
2017-08-01T07:13:43.577Z,4.97
2017-08-01T07:16:10.223Z,4.90
2017-08-01T07:18:36.861Z,4.53
2017-08-01T07:21:03.528Z,4.20
2017-08-01T07:23:30.164Z,3.90
2017-08-01T07:25:56.796Z,3.70
2017-08-01T07:28:23.475Z,4.70
2017-08-01T07:30:50.129Z,3.83
2017-08-01T07:33:16.764Z,4.70
2017-08-01T07:35:43.433Z,4.10
2017-08-01T07:38:10.072Z,4.57
2017-08-01T07:40:36.716Z,3.97
2017-08-01T07:43:03.378Z,3.70
2017-08-01T07:45:30.025Z,3.70
2017-08-01T07:47:56.671Z,3.70
2017-08-01T07:50:23.340Z,3.63
2017-08-01T07:52:50.010Z,3.30
2017-08-01T07:55:16.643Z,3.50
2017-08-01T07:57:43.323Z,3.60
2017-08-01T08:00:09.991Z,3.43
2017-08-01T08:02:36.703Z,3.70
2017-08-01T08:05:03.385Z,3.37
2017-08-01T08:07:30.020Z,4.13
2017-08-01T08:09:56.683Z,3.10
2017-08-01T08:12:23.344Z,4.40
2017-08-01T08:14:49.984Z,4.63
2017-08-01T08:17:16.634Z,5.83
2017-08-01T08:19:43.331Z,5.70
2017-08-01T08:22:09.992Z,5.63
2017-08-01T08:24:36.645Z,5.73
2017-08-01T08:27:03.322Z,4.40
2017-08-01T08:29:29.965Z,5.90
2017-08-01T08:31:56.609Z,7.07
2017-08-01T08:34:23.307Z,7.07
2017-08-01T08:36:49.940Z,5.60
2017-08-01T08:39:16.596Z,6.80
2017-08-01T08:41:43.388Z,7.30
2017-08-01T08:44:10.028Z,6.80
2017-08-01T08:46:36.664Z,5.90
2017-08-01T08:49:03.335Z,5.83
2017-08-01T08:51:29.988Z,6.17
2017-08-01T08:53:56.629Z,5.10
2017-08-01T08:56:23.319Z,4.97
2017-08-01T08:58:49.970Z,4.83
2017-08-01T09:01:16.608Z,5.03
2017-08-01T09:03:43.295Z,4.50
2017-08-01T09:06:10.043Z,3.50
2017-08-01T09:08:36.700Z,3.00
2017-08-01T09:11:03.368Z,3.10
2017-08-01T09:13:30.027Z,2.50
2017-08-01T09:15:56.696Z,3.13
2017-08-01T09:18:23.332Z,2.90
2017-08-01T09:20:49.969Z,3.33
2017-08-01T09:23:16.642Z,3.30
2017-08-01T09:25:43.298Z,3.37
2017-08-01T09:28:09.955Z,3.53
2017-08-01T09:30:36.663Z,3.87
2017-08-01T09:33:03.319Z,3.00
2017-08-01T09:35:29.964Z,4.80
2017-08-01T09:37:56.616Z,3.70
2017-08-01T09:40:23.259Z,2.90
2017-08-01T09:42:49.902Z,2.90
2017-08-01T09:45:16.573Z,3.30
2017-08-01T09:47:43.218Z,2.97
2017-08-01T09:50:09.854Z,3.50
2017-08-01T09:52:36.522Z,2.70
2017-08-01T09:55:03.155Z,2.50
2017-08-01T09:57:29.795Z,2.80
2017-08-01T09:59:56.462Z,3.47
2017-08-01T10:02:23.115Z,3.10
2017-08-01T10:04:49.752Z,3.43
2017-08-01T10:07:16.449Z,3.60
2017-08-01T10:09:43.089Z,2.63
2017-08-01T10:12:09.733Z,3.50
2017-08-01T10:14:36.404Z,3.50
2017-08-01T10:17:03.044Z,3.90
2017-08-01T10:19:29.703Z,2.90
2017-08-01T10:21:56.371Z,2.90
2017-08-01T10:24:23.020Z,3.43
2017-08-01T10:26:49.680Z,3.50
2017-08-01T10:29:16.352Z,3.97
2017-08-01T10:31:42.999Z,3.43
2017-08-01T10:34:09.680Z,3.13
2017-08-01T10:36:36.371Z,3.33
2017-08-01T10:39:03.008Z,3.10
2017-08-01T10:41:29.641Z,3.40
2017-08-01T10:43:56.323Z,3.33
2017-08-01T10:46:22.967Z,3.10
2017-08-01T10:48:49.614Z,2.90
2017-08-01T10:51:16.288Z,3.20
2017-08-01T10:53:42.927Z,2.70
2017-08-01T10:56:09.588Z,2.83
2017-08-01T10:58:36.260Z,2.60
2017-08-01T11:01:02.915Z,3.60
2017-08-01T11:03:29.556Z,3.70
2017-08-01T11:05:56.239Z,3.00
2017-08-01T11:08:22.876Z,3.10
2017-08-01T11:10:49.535Z,3.50
2017-08-01T11:13:16.211Z,3.90
2017-08-01T11:15:42.852Z,3.00
2017-08-01T11:18:09.513Z,3.10
2017-08-01T11:20:36.172Z,2.97
2017-08-01T11:23:02.979Z,2.97
2017-08-01T11:25:29.617Z,2.90
2017-08-01T11:27:56.280Z,3.10
2017-08-01T11:30:22.935Z,3.83
2017-08-01T11:32:49.602Z,2.97
2017-08-01T11:35:16.272Z,3.50
2017-08-01T11:37:42.926Z,3.70
2017-08-01T11:40:09.569Z,3.30
2017-08-01T11:42:36.249Z,2.87
2017-08-01T11:45:02.890Z,3.80
2017-08-01T11:47:29.523Z,3.63
2017-08-01T11:49:56.192Z,2.80
2017-08-01T11:52:22.832Z,3.40
2017-08-01T11:54:49.508Z,3.33
2017-08-01T11:57:16.198Z,4.63
2017-08-01T11:59:42.855Z,2.70
2017-08-01T12:02:09.496Z,3.00
2017-08-01T12:04:36.201Z,3.20
2017-08-01T12:07:02.836Z,2.90
2017-08-01T12:09:29.492Z,3.13
2017-08-01T12:11:56.180Z,2.83
2017-08-01T12:14:22.824Z,2.43
2017-08-01T12:16:49.470Z,2.47
2017-08-01T12:19:16.203Z,2.93
2017-08-01T12:21:42.859Z,3.10
2017-08-01T12:24:09.513Z,2.50
2017-08-01T12:26:36.184Z,3.20
2017-08-01T12:29:02.829Z,2.80
2017-08-01T12:31:29.493Z,3.00
2017-08-01T12:33:56.216Z,2.50
2017-08-01T12:36:22.872Z,2.60
2017-08-01T12:38:49.512Z,3.10
2017-08-01T12:41:16.165Z,3.10
2017-08-01T12:43:42.807Z,2.73
2017-08-01T12:46:09.467Z,2.77
2017-08-01T12:48:36.167Z,3.20
2017-08-01T12:51:02.820Z,2.97
2017-08-01T12:53:29.488Z,3.17
2017-08-01T12:55:56.162Z,2.90
2017-08-01T12:58:22.813Z,2.70
2017-08-01T13:00:49.463Z,3.03
2017-08-01T13:03:16.162Z,2.90
2017-08-01T13:05:42.817Z,3.07
2017-08-01T13:08:09.478Z,2.40
2017-08-01T13:10:36.134Z,3.27
2017-08-01T13:13:02.848Z,2.43
2017-08-01T13:15:29.485Z,2.70
2017-08-01T13:17:56.155Z,3.33
2017-08-01T13:20:22.815Z,2.93
2017-08-01T13:22:49.494Z,2.60
2017-08-01T13:25:16.186Z,2.83
2017-08-01T13:27:42.880Z,3.03
2017-08-01T13:30:09.579Z,2.70
2017-08-01T13:32:36.335Z,2.80
2017-08-01T13:35:03.061Z,3.20
2017-08-01T13:37:29.803Z,2.60
2017-08-01T13:39:56.815Z,3.27
2017-08-01T13:42:23.490Z,2.50
2017-08-01T13:44:50.144Z,2.70
2017-08-01T13:47:16.846Z,2.97
2017-08-01T13:49:43.609Z,3.30
2017-08-01T13:52:10.278Z,2.90
2017-08-01T13:54:36.997Z,2.83
2017-08-01T13:57:03.674Z,3.40
2017-08-01T13:59:30.317Z,3.60
2017-08-01T14:01:56.989Z,2.90
2017-08-01T14:04:23.711Z,2.80
2017-08-01T14:06:50.447Z,3.23
2017-08-01T14:09:17.118Z,3.47
2017-08-01T14:11:43.790Z,2.50
2017-08-01T14:14:10.498Z,2.40
2017-08-01T14:16:37.257Z,3.70
2017-08-01T14:19:03.981Z,2.90
2017-08-01T14:21:30.689Z,3.47
2017-08-01T14:23:57.418Z,2.83
2017-08-01T14:26:24.092Z,3.30
2017-08-01T14:28:50.775Z,2.73
2017-08-01T14:31:17.477Z,3.27
2017-08-01T14:33:44.223Z,2.80
2017-08-01T14:36:11.011Z,2.70
2017-08-01T14:38:37.739Z,2.97
2017-08-01T14:41:04.463Z,2.40
2017-08-01T14:43:31.149Z,3.10
2017-08-01T14:45:57.907Z,3.17
2017-08-01T14:48:24.774Z,2.60
2017-08-01T14:50:51.528Z,2.60
2017-08-01T14:53:18.305Z,3.23
2017-08-01T14:55:44.957Z,2.70
2017-08-01T14:58:11.655Z,2.57
2017-08-01T15:00:38.416Z,2.37
2017-08-01T15:03:05.085Z,2.40
2017-08-01T15:05:31.763Z,2.60
2017-08-01T15:07:58.529Z,2.47
2017-08-01T15:10:25.239Z,3.00
2017-08-01T15:12:51.973Z,2.40
2017-08-01T15:15:18.721Z,3.07
2017-08-01T15:17:45.433Z,2.73
2017-08-01T15:20:12.122Z,2.43
2017-08-01T15:22:38.884Z,2.77
2017-08-01T15:25:05.569Z,3.23
2017-08-01T15:27:32.298Z,3.07
2017-08-01T15:29:59.059Z,3.40
2017-08-01T15:32:25.795Z,2.40
2017-08-01T15:34:52.515Z,2.97
2017-08-01T15:37:19.226Z,2.83
2017-08-01T15:39:46.182Z,4.10
2017-08-01T15:42:13.025Z,3.90
2017-08-01T15:44:40.073Z,3.20
2017-08-01T15:47:07.017Z,3.00
2017-08-01T15:49:34.168Z,3.50
2017-08-01T15:52:01.215Z,2.80
2017-08-01T15:54:28.161Z,3.00
2017-08-01T15:56:55.004Z,3.10
2017-08-01T15:59:22.154Z,3.47
2017-08-01T16:01:49.104Z,3.33
2017-08-01T16:04:16.045Z,3.13
2017-08-01T16:06:43.195Z,2.93
2017-08-01T16:09:10.140Z,3.17
2017-08-01T16:11:37.025Z,3.00
2017-08-01T16:14:04.031Z,2.50
2017-08-01T16:16:30.978Z,3.20
2017-08-01T16:18:57.926Z,2.70
2017-08-01T16:21:24.969Z,2.73
2017-08-01T16:23:52.733Z,3.20
2017-08-01T16:26:20.089Z,3.10
2017-08-01T16:28:47.137Z,2.70
2017-08-01T16:31:14.203Z,3.33
2017-08-01T16:33:41.232Z,3.00
2017-08-01T16:36:08.280Z,3.00
2017-08-01T16:38:35.328Z,4.00
2017-08-01T16:41:02.480Z,3.23
2017-08-01T16:43:29.709Z,3.03
2017-08-01T16:45:56.984Z,2.40
2017-08-01T16:48:24.035Z,3.80
2017-08-01T16:50:51.488Z,3.20
2017-08-01T16:53:18.673Z,2.90
2017-08-01T16:55:45.715Z,2.97
2017-08-01T16:58:12.738Z,2.93
2017-08-01T17:00:39.884Z,3.00
2017-08-01T17:03:06.830Z,3.23
2017-08-01T17:05:33.912Z,3.30
2017-08-01T17:08:01.129Z,3.27
2017-08-01T17:10:28.388Z,3.13
2017-08-01T17:12:55.532Z,3.77
2017-08-01T17:15:22.786Z,3.73
2017-08-01T17:17:50.013Z,3.40
2017-08-01T17:20:17.291Z,3.13
2017-08-01T17:22:44.952Z,3.40
2017-08-01T17:25:12.411Z,3.00
2017-08-01T17:27:39.767Z,3.70
2017-08-01T17:30:07.534Z,3.00
2017-08-01T17:32:34.986Z,3.40
2017-08-01T17:35:02.546Z,2.63
2017-08-01T17:37:30.618Z,3.43
2017-08-01T17:39:57.902Z,3.17
2017-08-01T17:42:25.532Z,3.80
2017-08-01T17:44:53.399Z,3.17
2017-08-01T17:47:21.265Z,3.47
2017-08-01T17:49:49.134Z,3.90
2017-08-01T17:52:17.001Z,3.53
2017-08-01T17:54:44.867Z,3.00
2017-08-01T17:57:12.734Z,3.73
2017-08-01T17:59:40.501Z,3.57
2017-08-01T18:02:08.365Z,3.60
2017-08-01T18:04:36.233Z,2.90
2017-08-01T18:07:03.485Z,4.00
2017-08-01T18:09:30.720Z,3.30
2017-08-01T18:11:57.787Z,2.77
2017-08-01T18:14:24.935Z,3.40
2017-08-01T18:16:52.086Z,3.60
2017-08-01T18:19:19.235Z,4.07
2017-08-01T18:21:46.898Z,3.20
2017-08-01T18:24:14.457Z,4.20
2017-08-01T18:26:41.914Z,3.13
2017-08-01T18:29:09.300Z,3.07
2017-08-01T18:31:36.727Z,3.37
2017-08-01T18:34:03.982Z,3.63
2017-08-01T18:36:31.130Z,2.87
2017-08-01T18:38:58.281Z,4.23
2017-08-01T18:41:25.430Z,3.23
2017-08-01T18:43:52.684Z,2.70
2017-08-01T18:46:19.833Z,2.27
2017-08-01T18:48:46.781Z,2.50
2017-08-01T18:51:13.827Z,3.03
2017-08-01T18:53:40.773Z,3.47
2017-08-01T18:56:07.717Z,3.10
2017-08-01T18:58:34.663Z,4.57
2017-08-01T19:01:01.609Z,3.20
2017-08-01T19:03:28.367Z,3.10
2017-08-01T19:05:55.293Z,2.60
2017-08-01T19:08:22.239Z,3.07
2017-08-01T19:10:49.184Z,2.70
2017-08-01T19:13:16.129Z,2.60
2017-08-01T19:15:43.282Z,2.13
2017-08-01T19:18:10.327Z,2.50
2017-08-01T19:20:37.581Z,2.50
2017-08-01T19:23:04.833Z,2.77
2017-08-01T19:25:31.778Z,2.20
2017-08-01T19:27:58.962Z,2.77
2017-08-01T19:30:25.975Z,2.70
2017-08-01T19:32:52.737Z,2.47
2017-08-01T19:35:19.766Z,2.80
2017-08-01T19:37:46.709Z,2.30
2017-08-01T19:40:13.861Z,2.20
2017-08-01T19:42:41.009Z,2.20
2017-08-01T19:45:08.060Z,2.80
2017-08-01T19:47:35.003Z,2.50
2017-08-01T19:50:02.053Z,1.90
2017-08-01T19:52:29.098Z,1.70
2017-08-01T19:54:56.044Z,1.83
2017-08-01T19:57:23.092Z,2.67
2017-08-01T19:59:49.974Z,2.10
2017-08-01T20:02:16.880Z,2.33
2017-08-01T20:04:43.711Z,1.83
2017-08-01T20:07:10.685Z,2.17
2017-08-01T20:09:37.614Z,2.90
2017-08-01T20:12:04.558Z,2.37
2017-08-01T20:14:31.504Z,3.47
2017-08-01T20:16:58.193Z,2.93
2017-08-01T20:19:24.869Z,2.70
2017-08-01T20:21:51.527Z,2.80
2017-08-01T20:24:18.219Z,2.50
2017-08-01T20:26:44.925Z,2.53
2017-08-01T20:29:11.601Z,2.30
2017-08-01T20:31:38.275Z,2.47
2017-08-01T20:34:04.971Z,2.43
2017-08-01T20:36:31.627Z,2.30
2017-08-01T20:38:58.265Z,2.20
2017-08-01T20:41:24.947Z,2.00
2017-08-01T20:43:51.874Z,2.37
2017-08-01T20:46:18.531Z,2.80
2017-08-01T20:48:45.218Z,2.30
2017-08-01T20:51:11.864Z,2.40
2017-08-01T20:53:38.530Z,2.13
2017-08-01T20:56:05.211Z,2.60
2017-08-01T20:58:31.852Z,2.33
2017-08-01T21:00:58.492Z,3.03
2017-08-01T21:03:25.166Z,2.77
2017-08-01T21:05:51.805Z,2.93
2017-08-01T21:08:18.444Z,2.07
2017-08-01T21:10:45.103Z,2.37
2017-08-01T21:13:11.751Z,2.47
2017-08-01T21:15:38.407Z,2.83
2017-08-01T21:18:05.067Z,3.40
2017-08-01T21:20:31.736Z,2.27
2017-08-01T21:22:58.369Z,2.67
2017-08-01T21:25:25.022Z,2.47
2017-08-01T21:27:51.709Z,2.90
2017-08-01T21:30:19.214Z,2.92
2017-08-01T21:32:46.714Z,2.40
2017-08-01T21:35:14.229Z,2.58
2017-08-01T21:37:41.724Z,2.63
2017-08-01T21:40:09.234Z,2.20
2017-08-01T21:42:36.786Z,2.80
2017-08-01T21:45:05.108Z,2.40
2017-08-01T21:47:32.621Z,2.60
2017-08-01T21:50:00.952Z,2.10
2017-08-01T21:52:28.484Z,2.50
2017-08-01T21:54:56.000Z,2.33
2017-08-01T21:57:23.503Z,2.50
2017-08-01T21:59:51.093Z,2.87
2017-08-01T22:02:18.586Z,2.47
2017-08-01T22:04:46.854Z,2.80
2017-08-01T22:07:14.389Z,2.07
2017-08-01T22:09:41.900Z,2.10
2017-08-01T22:12:09.407Z,2.50
2017-08-01T22:14:36.933Z,2.30
2017-08-01T22:17:04.436Z,3.20
2017-08-01T22:19:31.935Z,2.53
2017-08-01T22:21:59.471Z,2.97
2017-08-01T22:24:27.758Z,3.27
2017-08-01T22:26:56.044Z,2.67
2017-08-01T22:29:24.320Z,2.80
2017-08-01T22:31:51.845Z,3.60
2017-08-01T22:34:19.388Z,3.20
2017-08-01T22:36:46.877Z,2.80
2017-08-01T22:39:14.428Z,2.60
2017-08-01T22:41:41.971Z,3.30
2017-08-01T22:44:09.610Z,3.20
2017-08-01T22:46:37.143Z,3.70
2017-08-01T22:49:04.663Z,4.60
2017-08-01T22:51:32.180Z,4.00
2017-08-01T22:53:59.716Z,5.60
2017-08-01T22:56:27.273Z,4.30
2017-08-01T22:58:55.560Z,4.83
2017-08-01T23:01:23.061Z,4.23
2017-08-01T23:03:50.595Z,3.90
2017-08-01T23:06:18.088Z,4.97
2017-08-01T23:08:45.596Z,5.50
2017-08-01T23:11:13.148Z,4.53
2017-08-01T23:13:40.653Z,6.67
2017-08-01T23:16:08.149Z,6.23
2017-08-01T23:18:36.447Z,8.47
2017-08-01T23:21:03.952Z,7.50
2017-08-01T23:23:31.461Z,6.70
2017-08-01T23:25:58.991Z,8.73
2017-08-01T23:28:26.492Z,7.20
2017-08-01T23:30:53.993Z,7.27
2017-08-01T23:33:21.540Z,8.10
2017-08-01T23:35:49.042Z,8.07
2017-08-01T23:38:17.331Z,7.50
2017-08-01T23:40:44.864Z,7.87
2017-08-01T23:43:12.363Z,7.70
2017-08-01T23:45:39.859Z,7.90
2017-08-01T23:48:07.597Z,7.40
2017-08-01T23:50:35.124Z,7.60
2017-08-01T23:53:03.397Z,6.83
2017-08-01T23:55:31.696Z,8.03
2017-08-01T23:57:59.206Z,9.17
